Terminal Aerodrome Forecast
Issued by NWS

Home | Current Version | Previous Version | Text Only | Print | Product List | Glossary Off
Versions: 1 2 3 4 5 6 7 8 9 10 11 12 13 14 15 16 17 18 19

209
FTUS42 KMHX 031005 AAA
TAFPGV
TAF AMD
KPGV 031005Z 0310/0406 VRB03KT P6SM SCT010 BKN030
     FM031130 17004KT 5SM BR BKN010
     FM031400 19012G19KT P6SM SCT025 BKN100
     FM031800 20017G24KT 6SM SHRA BKN045
     FM040100 19014G22KT 4SM SHRA BR VCTS OVC020CB
      AMD LTD TO CLD VIS AND WIND=

USA.gov is the U.S. government's official web portal to all federal, state and local government web resources and services.